sensor_id;sensor_type;location;lat;lon;timestamp;pressure;altitude;pressure_sealevel;temperature;humidity
6680;BME280;3376;42.664;23.346;2023-06-10T00:01:37;94153.91;;;19.08;100.00
6680;BME280;3376;42.664;23.346;2023-06-10T00:04:04;94072.44;;;18.58;100.00
6680;BME280;3376;42.664;23.346;2023-06-10T00:06:31;94176.19;;;19.34;100.00
6680;BME280;3376;42.664;23.346;2023-06-10T00:09:03;94184.88;;;19.34;100.00
6680;BME280;3376;42.664;23.346;2023-06-10T00:11:31;94181.00;;;19.25;100.00
6680;BME280;3376;42.664;23.346;2023-06-10T00:13:58;94176.78;;;19.24;100.00
6680;BME280;3376;42.664;23.346;2023-06-10T00:16:25;94174.56;;;19.16;100.00
6680;BME280;3376;42.664;23.346;2023-06-10T00:18:51;94172.53;;;19.07;100.00
6680;BME280;3376;42.664;23.346;2023-06-10T00:21:21;94174.25;;;19.01;100.00
6680;BME280;3376;42.664;23.346;2023-06-10T00:23:47;94170.97;;;18.94;100.00
6680;BME280;3376;42.664;23.346;2023-06-10T00:26:16;94174.31;;;18.90;100.00
6680;BME280;3376;42.664;23.346;2023-06-10T00:28:42;94175.59;;;18.87;100.00
6680;BME280;3376;42.664;23.346;2023-06-10T00:31:10;94174.69;;;18.82;100.00
6680;BME280;3376;42.664;23.346;2023-06-10T00:33:37;94169.03;;;18.73;100.00
6680;BME280;3376;42.664;23.346;2023-06-10T00:36:04;94179.06;;;18.76;100.00
6680;BME280;3376;42.664;23.346;2023-06-10T00:38:31;94182.09;;;18.85;100.00
6680;BME280;3376;42.664;23.346;2023-06-10T00:40:58;94177.47;;;18.75;100.00
6680;BME280;3376;42.664;23.346;2023-06-10T00:43:26;94171.06;;;18.71;100.00
6680;BME280;3376;42.664;23.346;2023-06-10T00:45:53;94166.31;;;18.68;100.00
6680;BME280;3376;42.664;23.346;2023-06-10T00:48:20;94177.34;;;18.70;100.00
6680;BME280;3376;42.664;23.346;2023-06-10T00:50:47;94168.94;;;18.68;100.00
6680;BME280;3376;42.664;23.346;2023-06-10T00:53:15;94178.28;;;18.64;100.00
6680;BME280;3376;42.664;23.346;2023-06-10T00:55:42;94160.63;;;18.59;100.00
6680;BME280;3376;42.664;23.346;2023-06-10T00:58:09;94173.59;;;18.66;100.00
6680;BME280;3376;42.664;23.346;2023-06-10T01:00:38;94177.72;;;18.62;100.00
6680;BME280;3376;42.664;23.346;2023-06-10T01:03:05;94163.84;;;18.50;100.00
6680;BME280;3376;42.664;23.346;2023-06-10T01:05:33;94177.06;;;18.55;100.00
6680;BME280;3376;42.664;23.346;2023-06-10T01:08:03;94156.09;;;18.43;100.00
6680;BME280;3376;42.664;23.346;2023-06-10T01:10:37;94131.13;;;18.29;100.00
6680;BME280;3376;42.664;23.346;2023-06-10T01:13:06;94184.09;;;18.66;100.00
6680;BME280;3376;42.664;23.346;2023-06-10T01:15:38;94175.19;;;18.67;100.00
6680;BME280;3376;42.664;23.346;2023-06-10T01:18:06;94160.88;;;18.58;100.00
6680;BME280;3376;42.664;23.346;2023-06-10T01:20:36;94186.59;;;18.72;100.00
6680;BME280;3376;42.664;23.346;2023-06-10T01:23:07;94188.97;;;18.74;100.00
6680;BME280;3376;42.664;23.346;2023-06-10T01:25:36;94181.81;;;18.69;100.00
6680;BME280;3376;42.664;23.346;2023-06-10T01:28:07;94185.34;;;18.75;100.00
6680;BME280;3376;42.664;23.346;2023-06-10T01:30:40;94181.19;;;18.79;100.00
6680;BME280;3376;42.664;23.346;2023-06-10T01:33:12;94173.22;;;18.74;100.00
6680;BME280;3376;42.664;23.346;2023-06-10T01:35:41;94180.19;;;18.80;100.00
6680;BME280;3376;42.664;23.346;2023-06-10T01:38:12;94185.66;;;18.79;100.00
6680;BME280;3376;42.664;23.346;2023-06-10T01:40:41;94190.59;;;18.75;100.00
6680;BME280;3376;42.664;23.346;2023-06-10T01:43:09;94179.53;;;18.73;100.00
6680;BME280;3376;42.664;23.346;2023-06-10T01:45:35;94184.53;;;18.74;100.00
6680;BME280;3376;42.664;23.346;2023-06-10T01:48:02;94166.75;;;18.65;100.00
6680;BME280;3376;42.664;23.346;2023-06-10T01:50:29;94164.56;;;18.73;100.00
6680;BME280;3376;42.664;23.346;2023-06-10T01:52:57;94168.94;;;18.68;100.00
6680;BME280;3376;42.664;23.346;2023-06-10T01:55:25;94167.78;;;18.64;100.00
6680;BME280;3376;42.664;23.346;2023-06-10T01:57:52;94169.59;;;18.63;100.00
6680;BME280;3376;42.664;23.346;2023-06-10T02:00:18;94165.41;;;18.62;100.00
6680;BME280;3376;42.664;23.346;2023-06-10T02:02:45;94171.47;;;18.63;100.00
6680;BME280;3376;42.664;23.346;2023-06-10T02:05:12;94158.78;;;18.60;100.00
6680;BME280;3376;42.664;23.346;2023-06-10T02:07:39;94157.09;;;18.54;100.00
6680;BME280;3376;42.664;23.346;2023-06-10T02:10:07;94158.59;;;18.50;100.00
6680;BME280;3376;42.664;23.346;2023-06-10T02:12:35;94152.66;;;18.43;100.00
6680;BME280;3376;42.664;23.346;2023-06-10T02:15:02;94149.03;;;18.44;100.00
6680;BME280;3376;42.664;23.346;2023-06-10T02:17:29;94154.59;;;18.36;100.00
6680;BME280;3376;42.664;23.346;2023-06-10T02:19:56;94157.13;;;18.31;100.00
6680;BME280;3376;42.664;23.346;2023-06-10T02:22:25;94132.97;;;18.17;100.00
6680;BME280;3376;42.664;23.346;2023-06-10T02:24:51;94145.03;;;18.30;100.00
6680;BME280;3376;42.664;23.346;2023-06-10T02:27:18;94146.97;;;18.34;100.00
6680;BME280;3376;42.664;23.346;2023-06-10T02:29:47;94146.72;;;18.36;100.00
6680;BME280;3376;42.664;23.346;2023-06-10T02:32:14;94138.22;;;18.29;100.00
6680;BME280;3376;42.664;23.346;2023-06-10T02:34:41;94135.00;;;18.38;100.00
6680;BME280;3376;42.664;23.346;2023-06-10T02:37:08;94133.75;;;18.41;100.00
6680;BME280;3376;42.664;23.346;2023-06-10T02:39:35;94129.75;;;18.38;100.00
6680;BME280;3376;42.664;23.346;2023-06-10T02:42:02;94140.47;;;18.48;100.00
6680;BME280;3376;42.664;23.346;2023-06-10T02:44:29;94121.84;;;18.50;100.00
6680;BME280;3376;42.664;23.346;2023-06-10T02:46:57;94121.72;;;18.56;100.00
6680;BME280;3376;42.664;23.346;2023-06-10T02:49:24;94132.63;;;18.77;100.00
6680;BME280;3376;42.664;23.346;2023-06-10T02:51:53;94138.19;;;18.80;100.00
6680;BME280;3376;42.664;23.346;2023-06-10T02:54:19;94133.03;;;18.85;100.00
6680;BME280;3376;42.664;23.346;2023-06-10T02:56:46;94133.59;;;18.87;100.00
6680;BME280;3376;42.664;23.346;2023-06-10T02:59:13;94115.97;;;18.71;100.00
6680;BME280;3376;42.664;23.346;2023-06-10T03:01:40;94128.78;;;18.84;100.00
6680;BME280;3376;42.664;23.346;2023-06-10T03:04:08;94133.28;;;18.84;100.00
6680;BME280;3376;42.664;23.346;2023-06-10T03:06:35;94128.03;;;18.84;100.00
6680;BME280;3376;42.664;23.346;2023-06-10T03:09:03;94138.69;;;18.94;100.00
6680;BME280;3376;42.664;23.346;2023-06-10T03:11:30;94138.06;;;19.03;100.00
6680;BME280;3376;42.664;23.346;2023-06-10T03:13:57;94125.97;;;19.02;100.00
6680;BME280;3376;42.664;23.346;2023-06-10T03:16:24;94034.50;;;18.38;100.00
6680;BME280;3376;42.664;23.346;2023-06-10T03:18:53;94142.94;;;19.11;100.00
6680;BME280;3376;42.664;23.346;2023-06-10T03:21:21;94141.91;;;19.12;100.00
6680;BME280;3376;42.664;23.346;2023-06-10T03:23:48;94141.25;;;19.05;100.00
6680;BME280;3376;42.664;23.346;2023-06-10T03:26:14;94139.34;;;19.01;100.00
6680;BME280;3376;42.664;23.346;2023-06-10T03:28:42;94161.41;;;19.16;100.00
6680;BME280;3376;42.664;23.346;2023-06-10T03:31:26;94165.63;;;19.17;100.00
6680;BME280;3376;42.664;23.346;2023-06-10T03:33:53;94165.72;;;19.22;100.00
6680;BME280;3376;42.664;23.346;2023-06-10T03:36:21;94165.81;;;19.27;100.00
6680;BME280;3376;42.664;23.346;2023-06-10T03:38:48;94170.25;;;19.27;100.00
6680;BME280;3376;42.664;23.346;2023-06-10T03:41:17;94164.34;;;19.20;100.00
6680;BME280;3376;42.664;23.346;2023-06-10T03:43:43;94162.03;;;19.23;100.00
6680;BME280;3376;42.664;23.346;2023-06-10T03:46:10;94081.38;;;18.74;100.00
6680;BME280;3376;42.664;23.346;2023-06-10T03:48:37;94168.53;;;19.32;100.00
6680;BME280;3376;42.664;23.346;2023-06-10T03:51:04;94173.03;;;19.20;100.00
6680;BME280;3376;42.664;23.346;2023-06-10T03:53:32;94171.59;;;19.13;100.00
6680;BME280;3376;42.664;23.346;2023-06-10T03:55:59;94172.47;;;19.18;100.00
6680;BME280;3376;42.664;23.346;2023-06-10T03:58:26;94165.47;;;19.07;100.00
6680;BME280;3376;42.664;23.346;2023-06-10T04:00:52;94168.16;;;19.12;100.00
6680;BME280;3376;42.664;23.346;2023-06-10T04:03:20;94162.91;;;19.12;100.00
6680;BME280;3376;42.664;23.346;2023-06-10T04:05:48;94164.06;;;19.16;100.00
6680;BME280;3376;42.664;23.346;2023-06-10T04:08:15;94164.50;;;19.13;100.00
6680;BME280;3376;42.664;23.346;2023-06-10T04:10:43;94160.78;;;19.09;100.00
6680;BME280;3376;42.664;23.346;2023-06-10T04:13:10;94167.13;;;19.13;100.00
6680;BME280;3376;42.664;23.346;2023-06-10T04:15:37;94172.47;;;19.18;100.00
6680;BME280;3376;42.664;23.346;2023-06-10T04:18:04;94176.47;;;19.21;100.00
6680;BME280;3376;42.664;23.346;2023-06-10T04:20:31;94165.16;;;19.20;100.00
6680;BME280;3376;42.664;23.346;2023-06-10T04:22:58;94174.06;;;19.19;100.00
6680;BME280;3376;42.664;23.346;2023-06-10T04:25:25;94177.81;;;19.23;100.00
6680;BME280;3376;42.664;23.346;2023-06-10T04:27:53;94183.50;;;19.32;100.00
6680;BME280;3376;42.664;23.346;2023-06-10T04:30:20;94171.81;;;19.39;100.00
6680;BME280;3376;42.664;23.346;2023-06-10T04:32:47;94179.22;;;19.42;100.00
6680;BME280;3376;42.664;23.346;2023-06-10T04:35:15;94178.75;;;19.45;100.00
6680;BME280;3376;42.664;23.346;2023-06-10T04:37:42;94178.75;;;19.45;100.00
6680;BME280;3376;42.664;23.346;2023-06-10T04:40:09;94170.97;;;19.50;100.00
6680;BME280;3376;42.664;23.346;2023-06-10T04:42:36;94168.50;;;19.60;100.00
6680;BME280;3376;42.664;23.346;2023-06-10T04:45:05;94180.34;;;19.63;100.00
6680;BME280;3376;42.664;23.346;2023-06-10T04:47:32;94176.44;;;19.65;100.00
6680;BME280;3376;42.664;23.346;2023-06-10T04:49:59;94167.44;;;19.61;100.00
6680;BME280;3376;42.664;23.346;2023-06-10T04:52:26;94169.06;;;19.62;100.00
6680;BME280;3376;42.664;23.346;2023-06-10T04:54:53;94177.00;;;19.67;100.00
6680;BME280;3376;42.664;23.346;2023-06-10T04:57:20;94167.69;;;19.60;100.00
6680;BME280;3376;42.664;23.346;2023-06-10T04:59:47;94177.16;;;19.61;100.00
6680;BME280;3376;42.664;23.346;2023-06-10T05:02:15;94175.88;;;19.63;100.00
6680;BME280;3376;42.664;23.346;2023-06-10T05:04:42;94174.75;;;19.59;100.00
6680;BME280;3376;42.664;23.346;2023-06-10T05:07:09;94168.50;;;19.60;100.00
6680;BME280;3376;42.664;23.346;2023-06-10T05:09:36;94144.97;;;19.37;100.00
6680;BME280;3376;42.664;23.346;2023-06-10T05:12:03;94172.63;;;19.56;100.00
6680;BME280;3376;42.664;23.346;2023-06-10T05:14:30;94161.47;;;19.33;100.00
6680;BME280;3376;42.664;23.346;2023-06-10T05:16:57;94167.28;;;19.35;100.00
6680;BME280;3376;42.664;23.346;2023-06-10T05:19:25;94168.78;;;19.47;100.00
6680;BME280;3376;42.664;23.346;2023-06-10T05:21:52;94171.03;;;19.55;100.00
6680;BME280;3376;42.664;23.346;2023-06-10T05:24:19;94170.00;;;19.56;100.00
6680;BME280;3376;42.664;23.346;2023-06-10T05:26:46;94163.41;;;19.54;100.00
6680;BME280;3376;42.664;23.346;2023-06-10T05:29:14;94166.25;;;19.36;100.00
6680;BME280;3376;42.664;23.346;2023-06-10T05:31:41;94167.38;;;19.40;100.00
6680;BME280;3376;42.664;23.346;2023-06-10T05:34:08;94175.94;;;19.35;100.00
6680;BME280;3376;42.664;23.346;2023-06-10T05:36:36;94170.78;;;19.40;100.00
6680;BME280;3376;42.664;23.346;2023-06-10T05:39:03;94172.06;;;19.38;100.00
6680;BME280;3376;42.664;23.346;2023-06-10T05:41:30;94167.53;;;19.33;100.00
6680;BME280;3376;42.664;23.346;2023-06-10T05:43:57;94158.03;;;19.32;100.00
6680;BME280;3376;42.664;23.346;2023-06-10T05:46:23;94173.59;;;19.50;100.00
6680;BME280;3376;42.664;23.346;2023-06-10T05:48:50;94168.56;;;19.65;100.00
6680;BME280;3376;42.664;23.346;2023-06-10T05:51:17;94180.50;;;19.89;100.00
6680;BME280;3376;42.664;23.346;2023-06-10T05:53:45;94175.63;;;19.98;100.00
6680;BME280;3376;42.664;23.346;2023-06-10T05:56:12;94181.53;;;20.05;100.00
6680;BME280;3376;42.664;23.346;2023-06-10T05:58:39;94178.91;;;20.05;100.00
6680;BME280;3376;42.664;23.346;2023-06-10T06:01:06;94177.66;;;20.13;100.00
6680;BME280;3376;42.664;23.346;2023-06-10T06:03:32;94189.47;;;20.27;100.00
6680;BME280;3376;42.664;23.346;2023-06-10T06:05:59;94089.38;;;19.78;100.00
6680;BME280;3376;42.664;23.346;2023-06-10T06:08:26;94195.16;;;20.57;100.00
6680;BME280;3376;42.664;23.346;2023-06-10T06:10:54;94189.44;;;20.65;100.00
6680;BME280;3376;42.664;23.346;2023-06-10T06:13:21;94190.78;;;20.67;100.00
6680;BME280;3376;42.664;23.346;2023-06-10T06:15:48;94187.44;;;20.72;100.00
6680;BME280;3376;42.664;23.346;2023-06-10T06:18:15;94180.91;;;20.79;100.00
6680;BME280;3376;42.664;23.346;2023-06-10T06:20:41;94172.66;;;20.71;100.00
6680;BME280;3376;42.664;23.346;2023-06-10T06:23:08;94173.94;;;20.90;100.00
6680;BME280;3376;42.664;23.346;2023-06-10T06:25:36;94173.81;;;21.01;100.00
6680;BME280;3376;42.664;23.346;2023-06-10T06:28:06;94182.69;;;21.17;100.00
6680;BME280;3376;42.664;23.346;2023-06-10T06:30:32;94190.84;;;21.16;100.00
6680;BME280;3376;42.664;23.346;2023-06-10T06:32:59;94187.44;;;21.15;100.00
6680;BME280;3376;42.664;23.346;2023-06-10T06:35:26;94189.66;;;21.28;100.00
6680;BME280;3376;42.664;23.346;2023-06-10T06:37:53;94178.59;;;21.31;100.00
6680;BME280;3376;42.664;23.346;2023-06-10T06:40:19;94170.19;;;21.34;100.00
6680;BME280;3376;42.664;23.346;2023-06-10T06:42:46;94189.84;;;21.48;100.00
6680;BME280;3376;42.664;23.346;2023-06-10T06:45:14;94192.56;;;21.58;100.00
6680;BME280;3376;42.664;23.346;2023-06-10T06:47:41;94173.84;;;21.60;100.00
6680;BME280;3376;42.664;23.346;2023-06-10T06:50:09;94182.22;;;21.78;100.00
6680;BME280;3376;42.664;23.346;2023-06-10T06:52:36;94182.56;;;21.87;100.00
6680;BME280;3376;42.664;23.346;2023-06-10T06:55:03;94184.41;;;21.91;100.00
6680;BME280;3376;42.664;23.346;2023-06-10T06:57:31;94158.44;;;21.73;100.00
6680;BME280;3376;42.664;23.346;2023-06-10T06:59:58;94168.06;;;21.89;100.00
6680;BME280;3376;42.664;23.346;2023-06-10T07:02:26;94182.41;;;22.03;100.00
6680;BME280;3376;42.664;23.346;2023-06-10T07:04:53;94164.75;;;22.09;100.00
6680;BME280;3376;42.664;23.346;2023-06-10T07:07:21;94174.88;;;22.27;100.00
6680;BME280;3376;42.664;23.346;2023-06-10T07:09:48;94180.25;;;22.42;100.00
6680;BME280;3376;42.664;23.346;2023-06-10T07:12:15;94177.38;;;22.44;100.00
6680;BME280;3376;42.664;23.346;2023-06-10T07:14:43;94187.00;;;22.70;100.00
6680;BME280;3376;42.664;23.346;2023-06-10T07:17:10;94186.28;;;22.84;100.00
6680;BME280;3376;42.664;23.346;2023-06-10T07:19:38;94176.56;;;23.00;100.00
6680;BME280;3376;42.664;23.346;2023-06-10T07:22:05;94172.19;;;23.31;100.00
6680;BME280;3376;42.664;23.346;2023-06-10T07:24:32;94161.28;;;23.22;100.00
6680;BME280;3376;42.664;23.346;2023-06-10T07:26:59;94181.22;;;23.60;100.00
6680;BME280;3376;42.664;23.346;2023-06-10T07:29:26;94180.41;;;23.69;100.00
6680;BME280;3376;42.664;23.346;2023-06-10T07:31:52;94178.28;;;23.81;100.00
6680;BME280;3376;42.664;23.346;2023-06-10T07:34:19;94179.88;;;23.87;97.76
6680;BME280;3376;42.664;23.346;2023-06-10T07:36:47;94167.44;;;23.88;97.64
6680;BME280;3376;42.664;23.346;2023-06-10T07:39:14;94180.97;;;24.16;98.18
6680;BME280;3376;42.664;23.346;2023-06-10T07:41:41;94178.56;;;24.20;96.98
6680;BME280;3376;42.664;23.346;2023-06-10T07:44:08;94183.84;;;24.25;95.85
6680;BME280;3376;42.664;23.346;2023-06-10T07:46:35;94185.63;;;24.55;94.43
6680;BME280;3376;42.664;23.346;2023-06-10T07:49:01;94183.22;;;24.63;95.70
6680;BME280;3376;42.664;23.346;2023-06-10T07:51:28;94185.34;;;24.66;93.05
6680;BME280;3376;42.664;23.346;2023-06-10T07:53:57;94179.72;;;24.83;91.79
6680;BME280;3376;42.664;23.346;2023-06-10T07:56:24;94179.72;;;24.83;90.21
6680;BME280;3376;42.664;23.346;2023-06-10T07:58:51;94180.28;;;24.80;89.33
6680;BME280;3376;42.664;23.346;2023-06-10T08:01:18;94168.91;;;24.74;89.42
6680;BME280;3376;42.664;23.346;2023-06-10T08:03:45;94185.31;;;24.81;85.42
6680;BME280;3376;42.664;23.346;2023-06-10T08:06:12;94190.00;;;24.94;84.82
6680;BME280;3376;42.664;23.346;2023-06-10T08:08:39;94186.19;;;25.20;83.25
6680;BME280;3376;42.664;23.346;2023-06-10T08:11:10;94179.63;;;25.57;79.54
6680;BME280;3376;42.664;23.346;2023-06-10T08:13:37;94176.69;;;25.92;77.05
6680;BME280;3376;42.664;23.346;2023-06-10T08:16:05;94163.94;;;25.94;73.96
6680;BME280;3376;42.664;23.346;2023-06-10T08:18:32;94166.28;;;26.05;71.15
6680;BME280;3376;42.664;23.346;2023-06-10T08:20:59;94160.22;;;25.95;72.18
6680;BME280;3376;42.664;23.346;2023-06-10T08:23:26;94161.88;;;25.86;71.34
6680;BME280;3376;42.664;23.346;2023-06-10T08:25:53;94142.84;;;25.79;71.47
6680;BME280;3376;42.664;23.346;2023-06-10T08:28:21;94158.38;;;26.24;72.53
6680;BME280;3376;42.664;23.346;2023-06-10T08:30:47;94139.88;;;26.42;73.47
6680;BME280;3376;42.664;23.346;2023-06-10T08:33:15;94144.72;;;26.59;71.51
6680;BME280;3376;42.664;23.346;2023-06-10T08:35:41;94149.09;;;26.74;63.32
6680;BME280;3376;42.664;23.346;2023-06-10T08:38:08;94135.81;;;26.50;64.53
6680;BME280;3376;42.664;23.346;2023-06-10T08:40:35;94150.75;;;26.70;63.30
6680;BME280;3376;42.664;23.346;2023-06-10T08:43:06;94149.56;;;26.81;61.37
6680;BME280;3376;42.664;23.346;2023-06-10T08:45:35;94144.84;;;26.96;61.07
6680;BME280;3376;42.664;23.346;2023-06-10T08:48:03;94139.75;;;27.00;59.39
6680;BME280;3376;42.664;23.346;2023-06-10T08:50:34;94140.06;;;27.17;57.53
6680;BME280;3376;42.664;23.346;2023-06-10T08:53:01;94139.03;;;27.50;55.81
6680;BME280;3376;42.664;23.346;2023-06-10T08:55:32;94133.00;;;27.63;54.92
6680;BME280;3376;42.664;23.346;2023-06-10T08:58:00;94134.31;;;27.79;55.62
6680;BME280;3376;42.664;23.346;2023-06-10T09:00:28;94132.66;;;27.51;56.57
6680;BME280;3376;42.664;23.346;2023-06-10T09:02:58;94133.06;;;27.39;56.72
6680;BME280;3376;42.664;23.346;2023-06-10T09:05:26;94112.56;;;27.03;54.58
6680;BME280;3376;42.664;23.346;2023-06-10T09:07:56;94023.75;;;26.43;59.94
6680;BME280;3376;42.664;23.346;2023-06-10T09:10:23;94118.03;;;26.93;57.50
6680;BME280;3376;42.664;23.346;2023-06-10T09:12:50;94122.56;;;27.11;54.64
6680;BME280;3376;42.664;23.346;2023-06-10T09:15:17;94124.28;;;27.02;53.84
6680;BME280;3376;42.664;23.346;2023-06-10T09:17:44;94106.00;;;26.77;53.66
6680;BME280;3376;42.664;23.346;2023-06-10T09:20:12;94113.16;;;27.00;56.05
6680;BME280;3376;42.664;23.346;2023-06-10T09:22:41;94115.84;;;27.37;54.14
6680;BME280;3376;42.664;23.346;2023-06-10T09:25:10;94109.41;;;27.56;54.02
6680;BME280;3376;42.664;23.346;2023-06-10T09:27:47;94088.94;;;27.70;52.17
6680;BME280;3376;42.664;23.346;2023-06-10T09:30:25;94117.97;;;28.04;53.02
6680;BME280;3376;42.664;23.346;2023-06-10T09:32:53;94113.72;;;28.03;51.39
6680;BME280;3376;42.664;23.346;2023-06-10T09:35:22;94093.69;;;27.92;51.51
6680;BME280;3376;42.664;23.346;2023-06-10T09:37:51;94108.78;;;28.10;51.02
6680;BME280;3376;42.664;23.346;2023-06-10T09:40:18;94108.28;;;28.08;49.77
6680;BME280;3376;42.664;23.346;2023-06-10T09:42:45;94110.13;;;28.40;48.82
6680;BME280;3376;42.664;23.346;2023-06-10T09:45:14;94106.97;;;28.65;48.08
6680;BME280;3376;42.664;23.346;2023-06-10T09:47:41;94103.22;;;28.79;47.70
6680;BME280;3376;42.664;23.346;2023-06-10T09:50:09;94095.13;;;28.71;45.93
6680;BME280;3376;42.664;23.346;2023-06-10T09:52:37;94093.34;;;28.66;48.61
6680;BME280;3376;42.664;23.346;2023-06-10T09:55:08;94092.72;;;28.42;48.71
6680;BME280;3376;42.664;23.346;2023-06-10T09:57:36;94097.13;;;28.65;49.22
6680;BME280;3376;42.664;23.346;2023-06-10T10:00:05;94089.91;;;28.66;51.03
6680;BME280;3376;42.664;23.346;2023-06-10T10:02:44;94080.91;;;28.75;48.96
6680;BME280;3376;42.664;23.346;2023-06-10T10:05:13;94088.88;;;28.89;51.27
6680;BME280;3376;42.664;23.346;2023-06-10T10:07:42;94081.69;;;28.76;48.70
6680;BME280;3376;42.664;23.346;2023-06-10T10:10:10;94063.72;;;28.54;47.03
6680;BME280;3376;42.664;23.346;2023-06-10T10:12:38;94078.84;;;28.59;47.85
6680;BME280;3376;42.664;23.346;2023-06-10T10:15:06;94075.56;;;28.75;48.15
6680;BME280;3376;42.664;23.346;2023-06-10T10:17:35;94073.34;;;29.05;45.09
6680;BME280;3376;42.664;23.346;2023-06-10T10:20:05;94073.28;;;29.32;43.43
6680;BME280;3376;42.664;23.346;2023-06-10T10:22:38;94083.72;;;29.42;43.79
6680;BME280;3376;42.664;23.346;2023-06-10T10:25:10;94076.13;;;29.35;45.83
6680;BME280;3376;42.664;23.346;2023-06-10T10:27:44;94055.66;;;29.09;48.84
6680;BME280;3376;42.664;23.346;2023-06-10T10:30:12;94064.59;;;29.26;44.31
6680;BME280;3376;42.664;23.346;2023-06-10T10:32:45;94058.88;;;29.19;40.85
6680;BME280;3376;42.664;23.346;2023-06-10T10:35:17;94051.38;;;29.08;44.03
6680;BME280;3376;42.664;23.346;2023-06-10T10:37:44;94079.03;;;29.25;44.02
6680;BME280;3376;42.664;23.346;2023-06-10T10:40:13;94052.06;;;29.49;42.85
6680;BME280;3376;42.664;23.346;2023-06-10T10:42:40;94070.41;;;29.86;39.98
6680;BME280;3376;42.664;23.346;2023-06-10T10:45:09;94047.63;;;29.88;39.43
6680;BME280;3376;42.664;23.346;2023-06-10T10:47:36;94058.50;;;29.70;41.05
6680;BME280;3376;42.664;23.346;2023-06-10T10:50:13;94044.53;;;29.29;41.70
6680;BME280;3376;42.664;23.346;2023-06-10T10:52:52;93959.22;;;28.79;42.54
6680;BME280;3376;42.664;23.346;2023-06-10T10:55:21;94046.56;;;29.10;42.46
6680;BME280;3376;42.664;23.346;2023-06-10T10:57:55;94048.97;;;28.84;41.79
6680;BME280;3376;42.664;23.346;2023-06-10T11:00:28;94043.34;;;28.85;45.76
6680;BME280;3376;42.664;23.346;2023-06-10T11:02:58;94018.69;;;29.02;45.55
6680;BME280;3376;42.664;23.346;2023-06-10T11:05:36;94045.19;;;29.12;47.59
6680;BME280;3376;42.664;23.346;2023-06-10T11:08:03;94031.44;;;29.05;44.93
6680;BME280;3376;42.664;23.346;2023-06-10T11:10:32;94033.91;;;28.52;46.53
6680;BME280;3376;42.664;23.346;2023-06-10T11:13:00;94029.94;;;28.50;48.42
6680;BME280;3376;42.664;23.346;2023-06-10T11:15:29;94024.03;;;28.39;49.80
6680;BME280;3376;42.664;23.346;2023-06-10T11:18:10;94022.75;;;28.10;49.93
6680;BME280;3376;42.664;23.346;2023-06-10T11:20:45;94020.28;;;28.13;49.39
6680;BME280;3376;42.664;23.346;2023-06-10T11:23:25;94014.09;;;28.31;47.70
6680;BME280;3376;42.664;23.346;2023-06-10T11:26:09;94002.69;;;28.66;46.49
6680;BME280;3376;42.664;23.346;2023-06-10T11:28:36;94011.59;;;28.98;45.38
6680;BME280;3376;42.664;23.346;2023-06-10T11:31:03;94009.44;;;29.00;43.77
6680;BME280;3376;42.664;23.346;2023-06-10T11:33:31;93989.53;;;29.06;44.08
6680;BME280;3376;42.664;23.346;2023-06-10T11:35:58;94013.56;;;29.28;44.43
6680;BME280;3376;42.664;23.346;2023-06-10T11:38:26;94004.50;;;29.29;43.79
6680;BME280;3376;42.664;23.346;2023-06-10T11:40:55;93995.44;;;29.16;44.28
6680;BME280;3376;42.664;23.346;2023-06-10T11:43:22;93990.75;;;29.00;45.85
6680;BME280;3376;42.664;23.346;2023-06-10T11:45:54;94001.91;;;29.02;46.02
6680;BME280;3376;42.664;23.346;2023-06-10T11:48:22;93998.69;;;28.91;45.30
6680;BME280;3376;42.664;23.346;2023-06-10T11:50:48;93999.38;;;28.97;45.72
6680;BME280;3376;42.664;23.346;2023-06-10T11:53:16;93995.75;;;28.79;46.52
6680;BME280;3376;42.664;23.346;2023-06-10T11:55:44;93995.53;;;28.89;47.79
6680;BME280;3376;42.664;23.346;2023-06-10T11:58:16;93971.69;;;28.70;47.03
6680;BME280;3376;42.664;23.346;2023-06-10T12:00:44;93979.44;;;28.80;46.53
6680;BME280;3376;42.664;23.346;2023-06-10T12:03:12;93976.75;;;28.58;47.75
6680;BME280;3376;42.664;23.346;2023-06-10T12:05:38;93995.69;;;28.70;46.41
6680;BME280;3376;42.664;23.346;2023-06-10T12:08:08;93992.44;;;28.60;45.30
6680;BME280;3376;42.664;23.346;2023-06-10T12:10:39;93982.31;;;28.35;45.22
6680;BME280;3376;42.664;23.346;2023-06-10T12:13:06;93988.13;;;28.50;44.27
6680;BME280;3376;42.664;23.346;2023-06-10T12:15:35;93988.88;;;28.64;43.68
6680;BME280;3376;42.664;23.346;2023-06-10T12:18:01;93988.50;;;28.57;42.70
6680;BME280;3376;42.664;23.346;2023-06-10T12:20:30;93974.53;;;28.25;43.87
6680;BME280;3376;42.664;23.346;2023-06-10T12:22:59;93977.94;;;28.39;43.72
6680;BME280;3376;42.664;23.346;2023-06-10T12:25:27;93986.13;;;28.42;41.40
6680;BME280;3376;42.664;23.346;2023-06-10T12:27:56;93984.56;;;28.41;41.73
6680;BME280;3376;42.664;23.346;2023-06-10T12:30:25;93972.78;;;28.42;42.27
6680;BME280;3376;42.664;23.346;2023-06-10T12:32:54;93974.59;;;28.33;44.92
6680;BME280;3376;42.664;23.346;2023-06-10T12:35:22;93954.28;;;28.24;45.08
6680;BME280;3376;42.664;23.346;2023-06-10T12:37:58;93978.91;;;28.43;42.53
6680;BME280;3376;42.664;23.346;2023-06-10T12:40:27;93963.84;;;28.38;43.28
6680;BME280;3376;42.664;23.346;2023-06-10T12:42:54;93956.84;;;28.15;42.57
6680;BME280;3376;42.664;23.346;2023-06-10T12:45:26;93838.78;;;27.25;43.27
6680;BME280;3376;42.664;23.346;2023-06-10T12:48:04;93956.16;;;27.96;44.32
6680;BME280;3376;42.664;23.346;2023-06-10T12:50:32;93951.75;;;27.92;42.26
6680;BME280;3376;42.664;23.346;2023-06-10T12:52:59;93965.31;;;27.90;41.16
6680;BME280;3376;42.664;23.346;2023-06-10T12:55:26;93955.03;;;27.70;41.63
6680;BME280;3376;42.664;23.346;2023-06-10T12:57:53;93965.81;;;27.78;41.98
6680;BME280;3376;42.664;23.346;2023-06-10T13:00:22;93963.72;;;27.89;42.72
6680;BME280;3376;42.664;23.346;2023-06-10T13:02:51;93938.91;;;27.80;42.04
6680;BME280;3376;42.664;23.346;2023-06-10T13:05:19;93967.81;;;28.00;41.90
6680;BME280;3376;42.664;23.346;2023-06-10T13:07:46;93966.34;;;28.08;40.87
6680;BME280;3376;42.664;23.346;2023-06-10T13:10:14;93952.81;;;27.91;41.03